Terminal Aerodrome Forecast
Issued by NWS

Home | Current Version | Previous Version | Text Only | Print | Product List | Glossary On
Versions: 1 2 3 4 5 6 7 8 9 10 11 12
000
FTUS46 KSGX 310500
TAFONT
TAF
KONT 310520Z 3106/0112 VRB04KT P6SM BKN150
     FM311500 04008KT P6SM SCT150
     FM311900 03012G20KT P6SM SCT250
     FM010200 VRB04KT P6SM SCT250=

USA.gov is the U.S. government's official web portal to all federal, state and local government web resources and services.